createdAt,value
2023-01-01T00:01:59.438Z,3.10
2023-01-01T00:04:30.374Z,3.07
2023-01-01T00:06:58.365Z,2.70
2023-01-01T00:09:44.133Z,3.30
2023-01-01T00:12:13.166Z,3.70
2023-01-01T00:14:42.987Z,3.60
2023-01-01T00:17:11.253Z,2.30
2023-01-01T00:19:40.960Z,2.70
2023-01-01T00:22:43.820Z,2.70
2023-01-01T00:24:56.963Z,2.60
2023-01-01T00:27:25.024Z,2.17
2023-01-01T00:29:52.986Z,2.67
2023-01-01T00:32:23.055Z,2.30
2023-01-01T00:34:53.067Z,2.13
2023-01-01T00:37:21.103Z,3.07
2023-01-01T00:39:49.106Z,2.80
2023-01-01T00:42:17.089Z,2.30
2023-01-01T00:44:45.377Z,2.40
2023-01-01T00:47:13.415Z,2.60
2023-01-01T00:49:41.567Z,1.80
2023-01-01T00:52:11.233Z,1.60
2023-01-01T00:54:39.311Z,1.80
2023-01-01T00:57:07.375Z,3.33
2023-01-01T00:59:35.383Z,1.60
2023-01-01T01:02:03.599Z,1.80
2023-01-01T01:04:31.718Z,1.80
2023-01-01T01:06:59.756Z,1.60
2023-01-01T01:09:29.149Z,1.60
2023-01-01T01:12:16.983Z,1.37
2023-01-01T01:14:45.305Z,2.20
2023-01-01T01:17:13.311Z,1.30
2023-01-01T01:19:41.239Z,1.57
2023-01-01T01:22:09.220Z,1.00
2023-01-01T01:24:38.673Z,1.20
2023-01-01T01:27:06.838Z,1.37
2023-01-01T01:29:35.135Z,1.20
2023-01-01T01:32:03.140Z,0.90
2023-01-01T01:34:31.398Z,0.90
2023-01-01T01:36:59.428Z,1.40
2023-01-01T01:39:27.424Z,1.00
2023-01-01T01:41:57.106Z,1.10
2023-01-01T01:44:51.521Z,1.33
2023-01-01T01:47:24.768Z,0.83
2023-01-01T01:49:58.842Z,1.60
2023-01-01T01:52:29.360Z,1.30
2023-01-01T01:54:58.599Z,0.73
2023-01-01T01:57:28.181Z,0.70
2023-01-01T01:59:58.155Z,1.00
2023-01-01T02:02:33.353Z,1.30
2023-01-01T02:05:02.397Z,1.43
2023-01-01T02:07:32.741Z,0.90
2023-01-01T02:10:02.438Z,1.80
2023-01-01T02:12:32.211Z,1.20
2023-01-01T02:15:00.283Z,1.40
2023-01-01T02:17:39.080Z,0.90
2023-01-01T02:20:26.614Z,0.97
2023-01-01T02:23:10.476Z,0.80
2023-01-01T02:25:56.578Z,1.20
2023-01-01T02:28:42.905Z,1.00
2023-01-01T02:31:12.513Z,1.20
2023-01-01T02:33:42.762Z,0.80
2023-01-01T02:36:13.952Z,1.00
2023-01-01T02:38:46.843Z,0.87
2023-01-01T02:41:21.099Z,1.00
2023-01-01T02:43:50.581Z,1.37
2023-01-01T02:48:47.332Z,1.20
2023-01-01T02:51:24.323Z,1.00
2023-01-01T02:54:01.299Z,1.17
2023-01-01T02:56:37.580Z,0.80
2023-01-01T02:59:36.142Z,1.00
2023-01-01T03:02:12.195Z,1.37
2023-01-01T03:04:49.008Z,0.83
2023-01-01T03:07:28.026Z,1.03
2023-01-01T03:10:00.489Z,1.13
2023-01-01T03:12:40.613Z,1.10
2023-01-01T03:15:20.754Z,1.07
2023-01-01T03:17:56.347Z,0.97
2023-01-01T03:20:29.764Z,0.93
2023-01-01T03:23:03.470Z,0.87
2023-01-01T03:25:35.206Z,1.27
2023-01-01T03:28:07.512Z,1.30
2023-01-01T03:30:39.799Z,1.10
2023-01-01T03:33:14.182Z,1.27
2023-01-01T03:35:48.067Z,0.97
2023-01-01T03:38:22.511Z,0.77
2023-01-01T03:40:54.073Z,0.90
2023-01-01T03:43:28.750Z,0.90
2023-01-01T03:46:00.586Z,1.00
2023-01-01T03:48:50.946Z,0.90
2023-01-01T03:51:25.661Z,0.90
2023-01-01T03:53:55.797Z,0.80
2023-01-01T03:56:34.574Z,0.90
2023-01-01T03:59:12.108Z,1.10
2023-01-01T04:01:48.257Z,0.90
2023-01-01T04:04:17.632Z,1.17
2023-01-01T04:06:46.351Z,1.00
2023-01-01T04:09:18.274Z,1.33
2023-01-01T04:12:08.579Z,1.10
2023-01-01T04:14:40.402Z,1.50
2023-01-01T04:17:11.847Z,1.47
2023-01-01T04:19:39.854Z,1.57
2023-01-01T04:22:08.426Z,1.23
2023-01-01T04:24:37.097Z,1.20
2023-01-01T04:27:05.583Z,1.07
2023-01-01T04:29:33.866Z,1.00
2023-01-01T04:32:01.794Z,0.90
2023-01-01T04:34:31.122Z,1.10
2023-01-01T04:36:59.325Z,1.30
2023-01-01T04:39:28.332Z,0.77
2023-01-01T04:41:56.475Z,1.50
2023-01-01T04:44:24.942Z,1.10
2023-01-01T04:46:56.904Z,1.20
2023-01-01T04:49:28.474Z,1.43
2023-01-01T04:51:57.829Z,0.87
2023-01-01T04:54:25.790Z,0.80
2023-01-01T04:56:53.770Z,0.90
2023-01-01T04:59:21.905Z,0.80
2023-01-01T05:01:50.099Z,1.10
2023-01-01T05:04:18.929Z,0.90
2023-01-01T05:06:47.236Z,0.90
2023-01-01T05:09:16.649Z,1.03
2023-01-01T05:11:44.655Z,1.30
2023-01-01T05:14:12.807Z,2.03
2023-01-01T05:16:41.552Z,0.93
2023-01-01T05:19:10.535Z,1.30
2023-01-01T05:21:40.464Z,0.97
2023-01-01T05:24:10.869Z,1.93
2023-01-01T05:26:43.470Z,0.97
2023-01-01T05:29:16.926Z,0.90
2023-01-01T05:31:46.464Z,1.10
2023-01-01T05:34:14.865Z,0.90
2023-01-01T05:36:43.062Z,1.00
2023-01-01T05:39:13.311Z,0.70
2023-01-01T05:41:42.853Z,0.90
2023-01-01T05:44:11.678Z,0.87
2023-01-01T05:46:40.526Z,0.93
2023-01-01T05:49:11.967Z,0.90
2023-01-01T05:54:06.989Z,1.70
2023-01-01T05:56:34.962Z,2.03
2023-01-01T05:59:05.369Z,1.10
2023-01-01T06:01:37.452Z,1.17
2023-01-01T06:04:09.789Z,0.67
2023-01-01T06:06:37.823Z,0.90
2023-01-01T06:09:07.086Z,1.30
2023-01-01T06:11:35.184Z,1.10
2023-01-01T06:14:04.540Z,0.90
2023-01-01T06:16:33.370Z,0.80
2023-01-01T06:19:01.400Z,0.80
2023-01-01T06:21:30.556Z,0.90
2023-01-01T06:23:59.744Z,1.10
2023-01-01T06:26:31.318Z,0.90
2023-01-01T06:29:00.399Z,1.20
2023-01-01T06:31:35.372Z,0.83
2023-01-01T06:34:06.531Z,1.00
2023-01-01T06:36:34.766Z,1.00
2023-01-01T06:39:03.578Z,1.63
2023-01-01T06:41:32.793Z,1.00
2023-01-01T06:44:02.251Z,1.67
2023-01-01T06:46:33.409Z,1.10
2023-01-01T06:49:04.139Z,1.03
2023-01-01T06:51:33.720Z,0.70
2023-01-01T06:54:03.224Z,1.33
2023-01-01T06:56:32.189Z,0.90
2023-01-01T06:59:01.194Z,1.00
2023-01-01T07:01:32.395Z,0.70
2023-01-01T07:04:02.150Z,1.23
2023-01-01T07:06:32.609Z,0.80
2023-01-01T07:09:00.656Z,1.40
2023-01-01T07:11:29.501Z,1.20
2023-01-01T07:13:57.636Z,1.60
2023-01-01T07:16:26.591Z,1.17
2023-01-01T07:18:57.412Z,1.07
2023-01-01T07:21:31.577Z,0.90
2023-01-01T07:24:00.716Z,0.87
2023-01-01T07:26:30.391Z,1.00
2023-01-01T07:29:06.413Z,1.10
2023-01-01T07:31:35.419Z,1.27
2023-01-01T07:34:04.998Z,1.00
2023-01-01T07:36:33.101Z,0.97
2023-01-01T07:39:01.124Z,0.77
2023-01-01T07:41:29.178Z,0.90
2023-01-01T07:43:57.127Z,1.17
2023-01-01T07:46:25.254Z,1.20
2023-01-01T07:48:56.496Z,0.80
2023-01-01T07:51:25.983Z,1.50
2023-01-01T07:53:53.997Z,1.00
2023-01-01T07:56:22.023Z,1.10
2023-01-01T07:58:50.240Z,0.90
2023-01-01T08:01:19.117Z,0.90
2023-01-01T08:03:52.929Z,0.80
2023-01-01T08:06:25.345Z,1.50
2023-01-01T08:08:53.449Z,1.20
2023-01-01T08:11:21.448Z,1.10
2023-01-01T08:13:49.401Z,1.00
2023-01-01T08:16:17.534Z,0.97
2023-01-01T08:18:45.490Z,0.90
2023-01-01T08:21:13.473Z,1.03
2023-01-01T08:23:42.857Z,1.40
2023-01-01T08:26:16.499Z,1.57
2023-01-01T08:28:44.578Z,0.83
2023-01-01T08:31:12.650Z,1.20
2023-01-01T08:33:40.613Z,1.17
2023-01-01T08:36:11.806Z,1.00
2023-01-01T08:38:39.768Z,1.00
2023-01-01T08:41:09.669Z,1.07
2023-01-01T08:43:37.814Z,0.93
2023-01-01T08:46:06.269Z,0.90
2023-01-01T08:48:34.219Z,1.20
2023-01-01T08:51:03.077Z,0.90
2023-01-01T08:53:32.043Z,1.00
2023-01-01T08:56:01.151Z,1.00
2023-01-01T08:58:31.619Z,1.10
2023-01-01T09:01:00.038Z,1.47
2023-01-01T09:03:28.294Z,0.90
2023-01-01T09:05:56.422Z,1.30
2023-01-01T09:08:24.952Z,1.40
2023-01-01T09:10:53.658Z,1.17
2023-01-01T09:13:23.157Z,1.27
2023-01-01T09:15:52.594Z,1.60
2023-01-01T09:18:20.619Z,1.60
2023-01-01T09:20:49.203Z,1.23
2023-01-01T09:23:17.186Z,1.20
2023-01-01T09:25:45.176Z,1.53
2023-01-01T09:28:14.738Z,1.10
2023-01-01T09:30:42.810Z,1.37
2023-01-01T09:33:12.155Z,1.07
2023-01-01T09:35:44.090Z,0.90
2023-01-01T09:38:12.059Z,0.90
2023-01-01T09:40:51.498Z,1.10
2023-01-01T09:43:30.837Z,1.30
2023-01-01T09:46:01.744Z,1.20
2023-01-01T09:48:32.660Z,0.97
2023-01-01T09:51:03.951Z,1.07
2023-01-01T09:53:36.335Z,1.10
2023-01-01T09:56:05.957Z,1.00
2023-01-01T09:58:36.125Z,1.40
2023-01-01T10:01:11.323Z,1.20
2023-01-01T10:03:48.890Z,1.17
2023-01-01T10:06:24.141Z,1.17
2023-01-01T10:09:08.059Z,1.23
2023-01-01T10:11:45.187Z,1.07
2023-01-01T10:14:21.644Z,1.00
2023-01-01T10:16:53.755Z,1.80
2023-01-01T10:19:28.988Z,2.23
2023-01-01T10:22:02.506Z,1.07
2023-01-01T10:24:40.518Z,1.03
2023-01-01T10:27:11.342Z,0.90
2023-01-01T10:29:45.670Z,1.17
2023-01-01T10:32:21.311Z,0.90
2023-01-01T10:34:52.200Z,1.50
2023-01-01T10:37:21.327Z,1.23
2023-01-01T10:39:50.294Z,1.10
2023-01-01T10:42:18.300Z,1.20
2023-01-01T10:44:47.059Z,0.70
2023-01-01T10:47:25.954Z,0.97
2023-01-01T10:50:00.208Z,1.30
2023-01-01T10:52:31.935Z,0.90
2023-01-01T10:55:00.868Z,1.10
2023-01-01T10:57:35.485Z,1.00
2023-01-01T11:00:22.900Z,1.00
2023-01-01T11:03:20.408Z,1.83
2023-01-01T11:06:04.665Z,1.30
2023-01-01T11:08:34.774Z,1.40
2023-01-01T11:11:06.905Z,1.13
2023-01-01T11:13:35.666Z,1.13
2023-01-01T11:16:03.886Z,1.30
2023-01-01T11:18:36.638Z,2.43
2023-01-01T11:21:08.058Z,1.10
2023-01-01T11:23:37.505Z,1.63
2023-01-01T11:26:08.120Z,1.20
2023-01-01T11:28:36.804Z,0.90
2023-01-01T11:31:08.660Z,1.20
2023-01-01T11:33:40.755Z,1.30
2023-01-01T11:36:10.824Z,0.80
2023-01-01T11:38:38.927Z,1.60
2023-01-01T11:41:08.257Z,0.93
2023-01-01T11:43:41.291Z,0.77
2023-01-01T11:46:17.630Z,1.20
2023-01-01T11:48:46.220Z,1.70
2023-01-01T11:51:31.072Z,1.20
2023-01-01T11:54:12.139Z,1.30
2023-01-01T11:56:40.936Z,1.10
2023-01-01T11:59:17.371Z,1.10
2023-01-01T12:01:49.870Z,1.53
2023-01-01T12:04:21.220Z,1.43
2023-01-01T12:06:56.770Z,1.00
2023-01-01T12:09:30.460Z,1.30
2023-01-01T12:12:05.205Z,1.50
2023-01-01T12:14:40.645Z,1.30
2023-01-01T12:17:18.954Z,1.07
2023-01-01T12:19:57.903Z,1.20
2023-01-01T12:22:28.519Z,1.20
2023-01-01T12:24:57.661Z,1.40
2023-01-01T12:27:40.754Z,1.40
2023-01-01T12:30:22.395Z,0.87
2023-01-01T12:33:20.826Z,1.00
2023-01-01T12:36:01.753Z,1.77
2023-01-01T12:39:13.367Z,0.80
2023-01-01T12:41:48.245Z,1.00
2023-01-01T12:44:26.933Z,1.30
2023-01-01T12:46:59.584Z,1.23
2023-01-01T12:49:55.979Z,1.40
2023-01-01T12:52:36.797Z,1.07
2023-01-01T12:55:32.317Z,1.33
2023-01-01T12:58:09.113Z,1.00
2023-01-01T13:00:39.809Z,0.93
2023-01-01T13:03:17.215Z,1.23
2023-01-01T13:05:49.118Z,1.40
2023-01-01T13:08:17.387Z,0.90
2023-01-01T13:10:48.448Z,1.40
2023-01-01T13:13:19.011Z,0.93
2023-01-01T13:15:50.287Z,1.30
2023-01-01T13:18:27.680Z,0.97
2023-01-01T13:20:58.964Z,0.87
2023-01-01T13:23:49.986Z,1.00
2023-01-01T13:26:39.001Z,1.13
2023-01-01T13:29:45.226Z,1.30
2023-01-01T13:32:15.633Z,1.10
2023-01-01T13:35:03.636Z,1.10
2023-01-01T13:37:55.337Z,0.97
2023-01-01T13:40:53.045Z,1.63
2023-01-01T13:43:33.096Z,1.00
2023-01-01T13:46:13.428Z,1.10
2023-01-01T13:49:27.761Z,1.43
2023-01-01T13:52:29.567Z,1.40
2023-01-01T13:55:40.589Z,1.83
2023-01-01T13:58:51.338Z,1.30
2023-01-01T14:01:33.466Z,1.20
2023-01-01T14:04:02.911Z,1.40
2023-01-01T14:06:35.377Z,1.00
2023-01-01T14:09:06.981Z,0.97
2023-01-01T14:11:34.979Z,1.20
2023-01-01T14:14:04.750Z,1.20
2023-01-01T14:16:32.772Z,1.10
2023-01-01T14:19:03.530Z,1.47
2023-01-01T14:21:34.390Z,1.03
2023-01-01T14:24:06.284Z,1.27
2023-01-01T14:26:35.515Z,1.00
2023-01-01T14:29:09.003Z,1.50
2023-01-01T14:31:41.070Z,1.57
2023-01-01T14:34:16.508Z,1.37
2023-01-01T14:36:51.801Z,1.13
2023-01-01T14:39:28.294Z,0.97
2023-01-01T14:42:01.273Z,1.00
2023-01-01T14:44:35.108Z,1.00
2023-01-01T14:47:04.920Z,1.30
2023-01-01T14:49:38.934Z,1.00
2023-01-01T14:52:10.831Z,1.10
2023-01-01T14:54:42.378Z,1.40
2023-01-01T14:57:12.589Z,0.90
2023-01-01T14:59:47.897Z,1.73
2023-01-01T15:02:18.500Z,1.20
2023-01-01T15:04:46.577Z,1.00
2023-01-01T15:07:21.866Z,0.93
2023-01-01T15:09:50.318Z,0.90
2023-01-01T15:12:20.187Z,1.20
2023-01-01T15:14:51.374Z,1.17
2023-01-01T15:17:21.480Z,1.47
2023-01-01T15:20:02.626Z,1.07
2023-01-01T15:22:32.590Z,1.10
2023-01-01T15:25:01.613Z,1.30
2023-01-01T15:27:32.527Z,1.30
2023-01-01T15:30:07.030Z,1.20
2023-01-01T15:32:39.725Z,0.90
2023-01-01T15:35:19.831Z,1.20
2023-01-01T15:37:50.766Z,0.90
2023-01-01T15:40:34.856Z,1.50
2023-01-01T15:43:15.617Z,1.47
2023-01-01T15:45:53.935Z,0.90
2023-01-01T15:48:28.267Z,1.70
2023-01-01T15:51:12.728Z,0.97
2023-01-01T15:53:53.403Z,0.97
2023-01-01T15:56:23.927Z,1.23
2023-01-01T15:58:56.318Z,1.00
2023-01-01T16:01:28.534Z,1.30
2023-01-01T16:04:02.881Z,0.93
2023-01-01T16:06:31.583Z,1.23
2023-01-01T16:08:59.551Z,0.80
2023-01-01T16:11:27.609Z,0.70
2023-01-01T16:13:55.604Z,0.97
2023-01-01T16:16:29.926Z,1.03
2023-01-01T16:18:58.732Z,0.83
2023-01-01T16:21:28.841Z,0.70
2023-01-01T16:23:58.376Z,0.83
2023-01-01T16:26:26.800Z,1.00
2023-01-01T16:28:55.023Z,1.03
2023-01-01T16:31:28.457Z,1.20
2023-01-01T16:33:59.974Z,0.90
2023-01-01T16:36:29.383Z,1.00
2023-01-01T16:38:58.494Z,0.90
2023-01-01T16:41:30.135Z,0.60
2023-01-01T16:43:58.683Z,1.00
2023-01-01T16:46:27.920Z,0.80
2023-01-01T16:48:58.076Z,0.90
2023-01-01T16:51:29.307Z,0.90
2023-01-01T16:53:57.548Z,0.70
2023-01-01T16:56:25.815Z,0.80
2023-01-01T16:59:02.188Z,1.30
2023-01-01T17:01:31.874Z,0.93
2023-01-01T17:04:01.430Z,1.50
2023-01-01T17:06:29.422Z,1.47
2023-01-01T17:08:57.453Z,1.43
2023-01-01T17:11:26.159Z,1.20
2023-01-01T17:13:54.466Z,1.13
2023-01-01T17:16:27.294Z,1.23
2023-01-01T17:19:16.080Z,0.90
2023-01-01T17:21:49.691Z,1.03
2023-01-01T17:24:19.145Z,1.50
2023-01-01T17:26:47.210Z,1.33
2023-01-01T17:29:15.174Z,1.03
2023-01-01T17:31:43.892Z,0.80
2023-01-01T17:34:14.516Z,1.43
2023-01-01T17:36:43.603Z,1.07
2023-01-01T17:39:13.948Z,1.10
2023-01-01T17:41:42.419Z,1.20
2023-01-01T17:44:11.928Z,1.00
2023-01-01T17:46:40.286Z,0.90
2023-01-01T17:49:09.033Z,1.03
2023-01-01T17:51:39.207Z,0.80
2023-01-01T17:54:10.265Z,1.10
2023-01-01T17:56:40.072Z,1.10
2023-01-01T17:59:08.511Z,1.30
2023-01-01T18:01:36.727Z,0.93
2023-01-01T18:04:07.237Z,1.30
2023-01-01T18:06:41.451Z,1.17
2023-01-01T18:09:13.475Z,1.43
2023-01-01T18:11:43.801Z,0.93
2023-01-01T18:14:13.056Z,1.03
2023-01-01T18:16:44.982Z,1.23
2023-01-01T18:19:13.049Z,1.57
2023-01-01T18:21:43.012Z,1.10
2023-01-01T18:24:14.467Z,1.60
2023-01-01T18:26:44.418Z,1.93
2023-01-01T18:29:12.884Z,1.23
2023-01-01T18:31:41.066Z,1.30
2023-01-01T18:34:10.667Z,1.40
2023-01-01T18:36:40.416Z,1.00
2023-01-01T18:39:15.577Z,1.27
2023-01-01T18:42:14.284Z,1.30
2023-01-01T18:44:43.411Z,1.07
2023-01-01T18:47:16.414Z,1.27
2023-01-01T18:49:49.576Z,1.50
2023-01-01T18:52:25.995Z,1.17
2023-01-01T18:55:03.969Z,1.27
2023-01-01T18:57:33.525Z,1.53
2023-01-01T19:00:07.683Z,1.37
2023-01-01T19:02:39.227Z,2.00
2023-01-01T19:05:17.475Z,1.70
2023-01-01T19:07:46.353Z,2.47
2023-01-01T19:10:15.047Z,1.67
2023-01-01T19:12:44.954Z,1.93
2023-01-01T19:15:17.838Z,2.07
2023-01-01T19:17:46.339Z,2.13
2023-01-01T19:20:22.523Z,1.50
2023-01-01T19:22:50.798Z,1.73
2023-01-01T19:25:36.832Z,1.60
2023-01-01T19:28:34.455Z,1.13
2023-01-01T19:31:04.119Z,2.10
2023-01-01T19:33:32.277Z,2.03
2023-01-01T19:36:00.376Z,1.80
2023-01-01T19:38:28.729Z,2.80
2023-01-01T19:40:56.816Z,2.10
2023-01-01T19:43:24.793Z,1.60
2023-01-01T19:45:54.330Z,1.70
2023-01-01T19:48:22.418Z,2.13
2023-01-01T19:50:51.191Z,2.00
2023-01-01T19:53:19.427Z,1.70
2023-01-01T19:55:47.598Z,2.40
2023-01-01T19:58:16.163Z,2.30
2023-01-01T20:00:44.255Z,1.87
2023-01-01T20:06:02.391Z,1.63
2023-01-01T20:08:31.213Z,2.20
2023-01-01T20:10:59.810Z,1.87
2023-01-01T20:13:28.234Z,1.83
2023-01-01T20:15:56.372Z,2.03
2023-01-01T20:18:28.926Z,2.47
2023-01-01T20:21:18.034Z,2.53
2023-01-01T20:23:48.483Z,2.73
2023-01-01T20:26:16.699Z,2.93
2023-01-01T20:29:02.566Z,3.20
2023-01-01T20:31:30.629Z,2.77
2023-01-01T20:33:59.997Z,3.27
2023-01-01T20:36:45.573Z,2.27
2023-01-01T20:39:13.778Z,1.97
2023-01-01T20:41:41.731Z,2.17
2023-01-01T20:44:09.829Z,3.03
2023-01-01T20:46:38.446Z,2.00
2023-01-01T20:49:08.196Z,2.20
2023-01-01T20:51:36.304Z,2.70
2023-01-01T20:54:04.672Z,2.57
2023-01-01T20:56:32.705Z,2.67
2023-01-01T20:59:17.711Z,1.87
2023-01-01T21:01:50.188Z,2.10
2023-01-01T21:04:19.670Z,2.60
2023-01-01T21:06:47.934Z,2.00
2023-01-01T21:09:16.003Z,2.00
2023-01-01T21:11:43.975Z,2.83
2023-01-01T21:14:12.596Z,2.47
2023-01-01T21:16:44.286Z,2.63
2023-01-01T21:19:13.109Z,3.67
2023-01-01T21:21:46.104Z,3.47
2023-01-01T21:24:22.876Z,2.33
2023-01-01T21:26:52.556Z,4.60
2023-01-01T21:29:22.579Z,2.10
2023-01-01T21:31:53.446Z,2.90
2023-01-01T21:34:31.387Z,2.70
2023-01-01T21:37:11.548Z,2.77
2023-01-01T21:39:39.825Z,2.93
2023-01-01T21:42:23.221Z,2.80
2023-01-01T21:44:56.076Z,2.20
2023-01-01T21:47:25.458Z,2.00
2023-01-01T21:49:56.376Z,1.90
2023-01-01T21:52:26.167Z,2.87
2023-01-01T21:54:55.617Z,2.60
2023-01-01T21:57:25.623Z,2.70
2023-01-01T21:59:54.817Z,2.63
2023-01-01T22:02:33.048Z,2.37
2023-01-01T22:05:03.958Z,2.83
2023-01-01T22:10:30.730Z,2.07
2023-01-01T22:13:00.512Z,2.40
2023-01-01T22:15:31.592Z,2.87
2023-01-01T22:18:19.531Z,2.50
2023-01-01T22:20:48.527Z,1.80
2023-01-01T22:23:35.920Z,3.13
2023-01-01T22:26:12.851Z,5.60
2023-01-01T22:28:43.686Z,2.50
2023-01-01T22:31:18.156Z,3.50
2023-01-01T22:33:47.893Z,2.10
2023-01-01T22:36:19.149Z,2.20
2023-01-01T22:38:48.711Z,2.10
2023-01-01T22:41:17.107Z,2.97
2023-01-01T22:43:47.676Z,2.37
2023-01-01T22:46:27.575Z,2.23
2023-01-01T22:49:00.347Z,2.67
2023-01-01T22:51:35.669Z,2.30
2023-01-01T22:54:06.038Z,2.60
2023-01-01T22:56:34.154Z,2.10
2023-01-01T22:59:02.467Z,2.00
2023-01-01T23:01:30.838Z,1.80
2023-01-01T23:03:59.175Z,2.10
2023-01-01T23:06:27.897Z,1.83
2023-01-01T23:08:57.472Z,2.30
2023-01-01T23:11:28.029Z,1.80
2023-01-01T23:14:13.827Z,2.13
2023-01-01T23:16:41.896Z,2.10
2023-01-01T23:19:10.189Z,2.37
2023-01-01T23:21:41.003Z,1.70
2023-01-01T23:24:12.774Z,2.67
2023-01-01T23:26:43.099Z,2.10
2023-01-01T23:29:12.789Z,1.20
2023-01-01T23:31:42.397Z,1.80
2023-01-01T23:34:10.968Z,1.80
2023-01-01T23:36:40.767Z,2.37
2023-01-01T23:39:09.171Z,2.40
2023-01-01T23:41:37.348Z,2.20
2023-01-01T23:44:07.071Z,2.40
2023-01-01T23:46:36.294Z,2.03
2023-01-01T23:49:06.691Z,1.80
2023-01-01T23:51:35.605Z,2.03
2023-01-01T23:54:03.727Z,2.43
2023-01-01T23:56:31.722Z,1.50
2023-01-01T23:58:59.820Z,1.60
